createdAt,value
2018-07-26T00:03:51.468Z,80.60
2018-07-26T00:08:44.715Z,81.50
2018-07-26T00:28:17.449Z,83.10
2018-07-26T00:33:10.682Z,83.20
2018-07-26T00:47:50.379Z,84.10
2018-07-26T00:52:43.610Z,84.50
2018-07-26T00:57:36.866Z,84.50
2018-07-26T01:07:23.322Z,84.80
2018-07-26T01:12:16.570Z,85.30
2018-07-26T01:17:09.791Z,85.90
2018-07-26T01:22:03.133Z,86.10
2018-07-26T01:31:53.044Z,86.80
2018-07-26T01:36:46.298Z,87.50
2018-07-26T01:41:39.534Z,87.60
2018-07-26T01:46:32.788Z,87.30
2018-07-26T01:51:26.079Z,87.30
2018-07-26T01:56:19.374Z,87.90
2018-07-26T02:01:12.990Z,88.20
2018-07-26T02:06:06.474Z,88.80
2018-07-26T02:11:00.296Z,90.00
2018-07-26T02:30:33.344Z,90.40
2018-07-26T02:35:26.574Z,90.30
2018-07-26T02:40:19.884Z,90.10
2018-07-26T02:45:13.134Z,90.30
2018-07-26T02:50:06.573Z,90.40
2018-07-26T02:55:00.057Z,90.60
2018-07-26T03:04:46.458Z,90.70
2018-07-26T03:09:39.724Z,90.90
2018-07-26T03:14:38.644Z,90.90
2018-07-26T03:19:31.863Z,90.90
2018-07-26T03:29:18.273Z,91.20
2018-07-26T03:34:11.512Z,91.30
2018-07-26T03:39:07.945Z,91.60
2018-07-26T03:48:54.320Z,91.90
2018-07-26T03:53:47.686Z,92.10
2018-07-26T03:58:41.898Z,92.20
2018-07-26T04:03:35.157Z,92.60
2018-07-26T04:08:28.372Z,92.70
2018-07-26T04:13:21.606Z,92.70
2018-07-26T04:18:14.851Z,92.80
2018-07-26T04:32:55.198Z,92.90
2018-07-26T04:37:48.436Z,93.10
2018-07-26T04:42:41.691Z,93.10
2018-07-26T04:47:35.066Z,93.00
2018-07-26T04:52:28.435Z,92.80
2018-07-26T04:57:21.697Z,92.50
2018-07-26T05:02:15.051Z,92.40
2018-07-26T05:12:01.539Z,91.20
2018-07-26T05:16:54.809Z,90.00
2018-07-26T05:21:48.065Z,84.90
2018-07-26T05:26:41.375Z,79.90
2018-07-26T05:31:34.665Z,76.60
2018-07-26T05:46:14.266Z,69.70
2018-07-26T05:51:07.552Z,72.10
2018-07-26T05:56:00.914Z,73.00
2018-07-26T06:00:55.027Z,72.20
2018-07-26T06:05:48.301Z,73.10
2018-07-26T06:10:41.571Z,74.20
2018-07-26T06:15:34.833Z,72.90
2018-07-26T06:20:28.162Z,72.40
2018-07-26T06:30:14.606Z,67.70
2018-07-26T06:40:02.008Z,63.70
2018-07-26T06:44:55.286Z,59.70
2018-07-26T06:49:48.529Z,58.60
2018-07-26T06:59:35.025Z,53.70
2018-07-26T07:04:28.268Z,52.00
2018-07-26T07:09:21.622Z,50.10
2018-07-26T07:14:14.978Z,49.20
2018-07-26T07:24:01.765Z,45.30
2018-07-26T07:33:48.390Z,42.20
2018-07-26T07:38:42.153Z,40.80
2018-07-26T07:43:35.631Z,38.00
2018-07-26T07:48:28.911Z,36.30
2018-07-26T07:53:22.184Z,35.20
2018-07-26T07:58:15.440Z,37.90
2018-07-26T08:03:08.710Z,35.50
2018-07-26T08:08:02.073Z,34.30
2018-07-26T08:12:55.311Z,35.50
2018-07-26T08:17:48.579Z,36.50
2018-07-26T08:22:41.862Z,35.40
2018-07-26T08:27:35.148Z,37.10
2018-07-26T08:32:29.050Z,36.90
2018-07-26T08:42:15.568Z,33.90
2018-07-26T08:47:08.840Z,32.80
2018-07-26T08:52:02.177Z,32.60
2018-07-26T09:01:48.700Z,32.40
2018-07-26T09:16:28.371Z,31.00
2018-07-26T09:21:21.631Z,32.60
2018-07-26T09:26:14.923Z,31.10
2018-07-26T09:31:08.164Z,31.70
2018-07-26T09:36:01.444Z,30.60
2018-07-26T09:40:54.684Z,29.40
2018-07-26T09:45:47.939Z,31.50
2018-07-26T09:50:41.169Z,31.90
2018-07-26T09:55:34.445Z,31.60
2018-07-26T10:00:33.191Z,32.60
2018-07-26T10:05:26.469Z,32.20
2018-07-26T10:10:19.796Z,30.60
2018-07-26T10:15:13.073Z,30.00
2018-07-26T10:20:06.571Z,30.00
2018-07-26T10:25:00.076Z,29.70
2018-07-26T10:29:53.416Z,30.10
2018-07-26T10:34:46.660Z,32.30
2018-07-26T10:44:33.960Z,32.70
2018-07-26T10:49:27.185Z,32.70
2018-07-26T10:54:20.445Z,33.10
2018-07-26T10:59:13.715Z,34.40
2018-07-26T11:04:06.981Z,34.60
2018-07-26T11:09:00.245Z,34.70
2018-07-26T11:13:53.532Z,35.70
2018-07-26T11:18:46.783Z,35.10
2018-07-26T11:23:40.026Z,35.90
2018-07-26T11:33:26.488Z,35.90
2018-07-26T11:38:19.777Z,35.90
2018-07-26T11:43:13.027Z,34.20
2018-07-26T11:52:59.429Z,34.50
2018-07-26T11:57:53.130Z,34.10
2018-07-26T12:02:46.466Z,33.80
2018-07-26T12:07:39.744Z,34.80
2018-07-26T12:12:33.099Z,33.70
2018-07-26T12:17:26.384Z,33.90
2018-07-26T12:22:19.639Z,32.60
2018-07-26T12:32:06.274Z,33.50
2018-07-26T12:36:59.538Z,33.70
2018-07-26T12:41:52.878Z,33.30
2018-07-26T12:46:46.144Z,32.90
2018-07-26T12:51:39.407Z,32.70
2018-07-26T12:56:32.747Z,32.90
2018-07-26T13:01:26.462Z,33.30
2018-07-26T13:06:19.783Z,33.40
2018-07-26T13:11:13.042Z,33.40
2018-07-26T13:16:06.522Z,33.80
2018-07-26T13:20:59.818Z,33.90
2018-07-26T13:25:53.064Z,33.10
2018-07-26T13:30:46.354Z,32.80
2018-07-26T13:35:39.608Z,32.80
2018-07-26T13:40:32.878Z,32.30
2018-07-26T13:45:26.140Z,31.60
2018-07-26T13:50:19.808Z,30.90
2018-07-26T13:55:13.068Z,30.60
2018-07-26T14:00:06.452Z,30.80
2018-07-26T14:04:59.704Z,31.60
2018-07-26T14:09:53.024Z,31.00
2018-07-26T14:14:46.307Z,30.30
2018-07-26T14:19:39.563Z,30.00
2018-07-26T14:29:26.049Z,30.00
2018-07-26T14:34:19.254Z,29.60
2018-07-26T14:39:13.006Z,29.70
2018-07-26T14:44:06.684Z,29.40
2018-07-26T14:48:59.978Z,29.30
2018-07-26T14:53:53.216Z,30.40
2018-07-26T15:08:32.835Z,29.90
2018-07-26T15:18:19.922Z,29.30
2018-07-26T15:23:13.229Z,29.00
2018-07-26T15:28:06.546Z,29.00
2018-07-26T15:37:53.019Z,28.90
2018-07-26T15:42:46.339Z,28.50
2018-07-26T15:47:39.637Z,28.10
2018-07-26T15:52:32.935Z,28.80
2018-07-26T15:57:26.224Z,28.80
2018-07-26T16:02:19.541Z,29.20
2018-07-26T16:07:12.821Z,29.60
2018-07-26T16:12:06.098Z,29.60
2018-07-26T16:16:59.380Z,29.60
2018-07-26T16:21:52.624Z,30.00
2018-07-26T16:26:45.881Z,29.70
2018-07-26T16:31:39.170Z,30.50
2018-07-26T16:36:32.440Z,32.80
2018-07-26T16:41:25.698Z,34.20
2018-07-26T16:46:18.987Z,33.30
2018-07-26T16:51:12.256Z,30.20
2018-07-26T16:56:05.641Z,33.50
2018-07-26T17:00:58.934Z,36.40
2018-07-26T17:05:52.305Z,38.10
2018-07-26T17:10:45.722Z,38.90
2018-07-26T17:20:32.176Z,39.90
2018-07-26T17:30:19.332Z,40.90
2018-07-26T17:35:12.607Z,41.60
2018-07-26T17:40:06.325Z,42.50
2018-07-26T17:44:59.632Z,42.70
2018-07-26T17:49:52.882Z,43.40
2018-07-26T17:54:47.120Z,43.90
2018-07-26T17:59:40.396Z,44.40
2018-07-26T18:04:33.732Z,45.40
2018-07-26T18:09:27.038Z,45.30
2018-07-26T18:14:20.324Z,45.70
2018-07-26T18:19:13.578Z,46.20
2018-07-26T18:24:07.193Z,46.70
2018-07-26T18:29:00.496Z,47.10
2018-07-26T18:38:47.022Z,47.10
2018-07-26T18:43:40.359Z,47.30
2018-07-26T18:48:33.587Z,47.90
2018-07-26T18:58:20.115Z,48.30
2018-07-26T19:03:13.404Z,48.80
2018-07-26T19:08:06.971Z,49.00
2018-07-26T19:13:00.862Z,50.10
2018-07-26T19:17:54.144Z,50.70
2018-07-26T19:22:47.434Z,50.90
2018-07-26T19:32:33.925Z,52.40
2018-07-26T19:37:27.181Z,54.00
2018-07-26T19:42:20.479Z,55.00
2018-07-26T19:47:13.790Z,55.30
2018-07-26T20:01:54.071Z,55.70
2018-07-26T20:06:47.604Z,56.30
2018-07-26T20:11:40.888Z,56.90
2018-07-26T20:16:34.182Z,56.50
2018-07-26T20:26:20.674Z,57.10
2018-07-26T20:31:14.014Z,57.30
2018-07-26T20:36:07.320Z,58.40
2018-07-26T20:41:00.595Z,59.20
2018-07-26T20:45:53.871Z,59.20
2018-07-26T20:50:47.253Z,60.30
2018-07-26T21:00:33.679Z,62.50
2018-07-26T21:05:27.070Z,61.90
2018-07-26T21:10:20.265Z,62.60
2018-07-26T21:15:13.538Z,62.50
2018-07-26T21:20:06.860Z,62.80
2018-07-26T21:29:53.830Z,63.70
2018-07-26T21:34:47.314Z,64.40
2018-07-26T21:39:40.660Z,64.80
2018-07-26T21:44:33.987Z,65.90
2018-07-26T21:49:27.237Z,65.20
2018-07-26T21:54:20.560Z,67.20
2018-07-26T21:59:13.794Z,67.40
2018-07-26T22:04:07.063Z,67.50
2018-07-26T22:09:00.384Z,67.60
2018-07-26T22:13:53.710Z,67.40
2018-07-26T22:18:46.976Z,68.20
2018-07-26T22:28:33.493Z,67.60
2018-07-26T22:33:26.754Z,64.70
2018-07-26T22:38:20.064Z,64.20
2018-07-26T22:43:13.348Z,63.10
2018-07-26T22:53:00.087Z,60.60
2018-07-26T22:57:53.332Z,58.50
2018-07-26T23:02:46.632Z,58.40
2018-07-26T23:07:39.924Z,58.20
2018-07-26T23:17:26.380Z,58.80
2018-07-26T23:27:13.941Z,59.10
2018-07-26T23:32:07.270Z,59.30
2018-07-26T23:37:00.546Z,59.60
2018-07-26T23:41:53.798Z,59.20
2018-07-26T23:46:47.096Z,59.50
2018-07-26T23:51:40.420Z,59.40
2018-07-26T23:56:33.687Z,59.30
